メインページ
METAR-TAF:

METAR-TAF

空港 :

サスカトゥーン・ジョン・G・ディーフェンベーカー国際空港

サスカトゥーン, サスカチュワン州, カナダ

緯度: 52-10N, 経度: 106-41W, 海抜: 501m

現時点の気象観測

当レポートは47分前の10:00(UTC)に作成
南/南東の風 3kt
気温 8°C
湿度 71%
気圧 1019 hPa
視程: 24.1km
高度10000ftの千切れ雲あり

METAR: CYXE 201000Z 16003KT 15SM BKN100 08/03 A3008 RMK AC6 SLP203

時間: 04:47 (10:47 UTC)

予報

当レポートは5時間8分前の05:39(UTC)に作成
予報は20日の 06時(UTC)から 21日の 06時(UTC)まで有効
南/南東の風 5kt
視程: 10km
高度8000ftの千切れ雲あり
20日の 1600時(UTC)から
の風 8kt
視程: 10km
高度6000ftの千切れ雲あり
20日の 21時(UTC)から 20日の 23時(UTC)まで徐々に
北/北東の風 8kt

TAF: CYXE 200539Z 2006/2106 15005KT P6SM BKN080 FM201600 18008KT P6SM BKN060 BECMG 2021/2023 02008KT RMK NXT FCST BY 201200Z

4,000以上の空港の気象観測と天気予報(METAR報とTAF報)

利用可能な観測所は地図上に黄色い丸と赤い丸で示す。

丸の上にカーソルを重ねると観測所名を参照できる。

次にクリックすると気象観測と天気予報を参照できる。

マップの切り替え:黒色「×」印の緑ボタンをクリックして拡大、「-」印の緑ボタンをクリックして縮小、緑色の三角印をクリックして隣りの地図に切り替え


METAR-TAF: